sensor_id;sensor_type;location;lat;lon;timestamp;pressure;altitude;pressure_sealevel;temperature;humidity
23899;BME280;20544;50.018;20.010;2022-07-23T00:00:27;98831.38;;;21.59;100.00
23899;BME280;20544;50.018;20.010;2022-07-23T00:03:45;98833.84;;;21.61;100.00
23899;BME280;20544;50.018;20.010;2022-07-23T00:07:03;98830.84;;;21.57;100.00
23899;BME280;20544;50.018;20.010;2022-07-23T00:10:19;98827.22;;;21.52;100.00
23899;BME280;20544;50.018;20.010;2022-07-23T00:13:35;98829.55;;;21.43;100.00
23899;BME280;20544;50.018;20.010;2022-07-23T00:16:51;98831.77;;;21.46;100.00
23899;BME280;20544;50.018;20.010;2022-07-23T00:20:09;98830.56;;;21.37;100.00
23899;BME280;20544;50.018;20.010;2022-07-23T00:23:26;98823.47;;;21.30;100.00
23899;BME280;20544;50.018;20.010;2022-07-23T00:26:42;98816.21;;;21.31;100.00
23899;BME280;20544;50.018;20.010;2022-07-23T00:29:58;98824.73;;;21.23;100.00
23899;BME280;20544;50.018;20.010;2022-07-23T00:33:14;98825.48;;;21.18;100.00
23899;BME280;20544;50.018;20.010;2022-07-23T00:36:31;98833.25;;;21.14;100.00
23899;BME280;20544;50.018;20.010;2022-07-23T00:39:47;98842.72;;;21.17;100.00
23899;BME280;20544;50.018;20.010;2022-07-23T00:43:04;98841.34;;;21.14;100.00
23899;BME280;20544;50.018;20.010;2022-07-23T00:46:22;98840.16;;;21.05;100.00
23899;BME280;20544;50.018;20.010;2022-07-23T00:49:38;98836.81;;;20.98;100.00
23899;BME280;20544;50.018;20.010;2022-07-23T00:52:55;98848.72;;;21.02;100.00
23899;BME280;20544;50.018;20.010;2022-07-23T00:56:11;98848.33;;;20.93;100.00
23899;BME280;20544;50.018;20.010;2022-07-23T00:59:28;98848.27;;;20.88;100.00
23899;BME280;20544;50.018;20.010;2022-07-23T01:02:44;98840.83;;;20.95;100.00
23899;BME280;20544;50.018;20.010;2022-07-23T01:06:00;98842.27;;;21.03;100.00
23899;BME280;20544;50.018;20.010;2022-07-23T01:09:17;98842.14;;;20.93;100.00
23899;BME280;20544;50.018;20.010;2022-07-23T01:12:33;98839.05;;;20.84;100.00
23899;BME280;20544;50.018;20.010;2022-07-23T01:15:49;98845.09;;;20.91;100.00
23899;BME280;20544;50.018;20.010;2022-07-23T01:19:06;98835.37;;;20.90;100.00
23899;BME280;20544;50.018;20.010;2022-07-23T01:22:23;98839.79;;;20.79;100.00
23899;BME280;20544;50.018;20.010;2022-07-23T01:25:40;98838.66;;;20.75;100.00
23899;BME280;20544;50.018;20.010;2022-07-23T01:29:04;98834.48;;;20.67;100.00
23899;BME280;20544;50.018;20.010;2022-07-23T01:32:22;98825.75;;;20.60;100.00
23899;BME280;20544;50.018;20.010;2022-07-23T01:35:38;98828.37;;;20.55;100.00
23899;BME280;20544;50.018;20.010;2022-07-23T01:38:55;98834.23;;;20.52;100.00
23899;BME280;20544;50.018;20.010;2022-07-23T01:42:12;98831.61;;;20.57;100.00
23899;BME280;20544;50.018;20.010;2022-07-23T01:45:29;98839.95;;;20.56;100.00
23899;BME280;20544;50.018;20.010;2022-07-23T01:48:46;98840.38;;;20.47;100.00
23899;BME280;20544;50.018;20.010;2022-07-23T01:52:20;98830.16;;;20.49;100.00
23899;BME280;20544;50.018;20.010;2022-07-23T01:55:36;98834.48;;;20.50;100.00
23899;BME280;20544;50.018;20.010;2022-07-23T01:58:52;98834.89;;;20.42;100.00
23899;BME280;20544;50.018;20.010;2022-07-23T02:02:09;98830.81;;;20.40;100.00
23899;BME280;20544;50.018;20.010;2022-07-23T02:05:26;98829.67;;;20.35;100.00
23899;BME280;20544;50.018;20.010;2022-07-23T02:08:43;98836.54;;;20.26;100.00
23899;BME280;20544;50.018;20.010;2022-07-23T02:12:01;98838.66;;;20.24;100.00
23899;BME280;20544;50.018;20.010;2022-07-23T02:15:18;98835.30;;;20.17;100.00
23899;BME280;20544;50.018;20.010;2022-07-23T02:18:34;98834.41;;;20.11;100.00
23899;BME280;20544;50.018;20.010;2022-07-23T02:21:51;98845.48;;;20.15;100.00
23899;BME280;20544;50.018;20.010;2022-07-23T02:25:09;98834.96;;;20.13;100.00
23899;BME280;20544;50.018;20.010;2022-07-23T02:28:25;98835.05;;;20.01;100.00
23899;BME280;20544;50.018;20.010;2022-07-23T02:31:42;98836.56;;;19.97;100.00
23899;BME280;20544;50.018;20.010;2022-07-23T02:34:59;98830.30;;;19.92;100.00
23899;BME280;20544;50.018;20.010;2022-07-23T02:38:15;98835.59;;;19.86;100.00
23899;BME280;20544;50.018;20.010;2022-07-23T02:41:32;98830.84;;;19.94;100.00
23899;BME280;20544;50.018;20.010;2022-07-23T02:44:48;98832.65;;;19.88;100.00
23899;BME280;20544;50.018;20.010;2022-07-23T02:48:05;98833.36;;;19.83;100.00
23899;BME280;20544;50.018;20.010;2022-07-23T02:51:23;98827.18;;;19.83;100.00
23899;BME280;20544;50.018;20.010;2022-07-23T02:54:40;98840.02;;;19.81;100.00
23899;BME280;20544;50.018;20.010;2022-07-23T02:57:56;98830.71;;;19.71;100.00
23899;BME280;20544;50.018;20.010;2022-07-23T03:01:13;98840.17;;;19.74;100.00
23899;BME280;20544;50.018;20.010;2022-07-23T03:04:30;98832.81;;;19.69;100.00
23899;BME280;20544;50.018;20.010;2022-07-23T03:07:47;98829.45;;;19.62;100.00
23899;BME280;20544;50.018;20.010;2022-07-23T03:11:03;98841.69;;;19.70;100.00
23899;BME280;20544;50.018;20.010;2022-07-23T03:14:20;98828.83;;;19.72;100.00
23899;BME280;20544;50.018;20.010;2022-07-23T03:17:37;98838.11;;;19.64;100.00
23899;BME280;20544;50.018;20.010;2022-07-23T03:20:53;98825.36;;;19.60;100.00
23899;BME280;20544;50.018;20.010;2022-07-23T03:24:09;98826.91;;;19.55;100.00
23899;BME280;20544;50.018;20.010;2022-07-23T03:27:28;98833.09;;;19.56;100.00
23899;BME280;20544;50.018;20.010;2022-07-23T03:30:45;98825.12;;;19.61;100.00
23899;BME280;20544;50.018;20.010;2022-07-23T03:34:02;98814.14;;;19.63;100.00
23899;BME280;20544;50.018;20.010;2022-07-23T03:37:19;98818.59;;;19.57;100.00
23899;BME280;20544;50.018;20.010;2022-07-23T03:40:35;98824.22;;;19.55;100.00
23899;BME280;20544;50.018;20.010;2022-07-23T03:43:51;98818.34;;;19.59;100.00
23899;BME280;20544;50.018;20.010;2022-07-23T03:47:08;98813.05;;;19.64;100.00
23899;BME280;20544;50.018;20.010;2022-07-23T03:50:26;98815.53;;;19.65;100.00
23899;BME280;20544;50.018;20.010;2022-07-23T03:53:43;98817.48;;;19.70;100.00
23899;BME280;20544;50.018;20.010;2022-07-23T03:57:00;98828.11;;;19.77;100.00
23899;BME280;20544;50.018;20.010;2022-07-23T04:00:17;98825.88;;;19.85;100.00
23899;BME280;20544;50.018;20.010;2022-07-23T04:03:33;98824.33;;;19.90;100.00
23899;BME280;20544;50.018;20.010;2022-07-23T04:06:51;98825.97;;;19.91;100.00
23899;BME280;20544;50.018;20.010;2022-07-23T04:10:08;98825.25;;;19.95;100.00
23899;BME280;20544;50.018;20.010;2022-07-23T04:13:24;98813.52;;;20.01;100.00
23899;BME280;20544;50.018;20.010;2022-07-23T04:16:42;98820.36;;;20.09;100.00
23899;BME280;20544;50.018;20.010;2022-07-23T04:19:58;98824.05;;;20.20;100.00
23899;BME280;20544;50.018;20.010;2022-07-23T04:23:17;98821.19;;;20.27;100.00
23899;BME280;20544;50.018;20.010;2022-07-23T04:26:35;98822.32;;;20.31;100.00
23899;BME280;20544;50.018;20.010;2022-07-23T04:29:51;98828.11;;;20.40;100.00
23899;BME280;20544;50.018;20.010;2022-07-23T04:33:07;98826.98;;;20.52;100.00
23899;BME280;20544;50.018;20.010;2022-07-23T04:36:24;98815.77;;;20.61;100.00
23899;BME280;20544;50.018;20.010;2022-07-23T04:39:40;98816.27;;;20.75;100.00
23899;BME280;20544;50.018;20.010;2022-07-23T04:42:57;98819.45;;;20.89;100.00
23899;BME280;20544;50.018;20.010;2022-07-23T04:46:15;98809.38;;;21.01;100.00
23899;BME280;20544;50.018;20.010;2022-07-23T04:49:32;98810.08;;;21.13;100.00
23899;BME280;20544;50.018;20.010;2022-07-23T04:52:48;98811.56;;;21.26;100.00
23899;BME280;20544;50.018;20.010;2022-07-23T04:56:05;98807.66;;;21.39;100.00
23899;BME280;20544;50.018;20.010;2022-07-23T04:59:22;98816.69;;;21.50;100.00
23899;BME280;20544;50.018;20.010;2022-07-23T05:02:40;98819.27;;;21.62;100.00
23899;BME280;20544;50.018;20.010;2022-07-23T05:05:56;98811.03;;;21.74;100.00
23899;BME280;20544;50.018;20.010;2022-07-23T05:09:13;98815.01;;;21.93;100.00
23899;BME280;20544;50.018;20.010;2022-07-23T05:12:30;98818.14;;;22.12;100.00
23899;BME280;20544;50.018;20.010;2022-07-23T05:15:47;98821.48;;;22.25;100.00
23899;BME280;20544;50.018;20.010;2022-07-23T05:19:04;98814.85;;;22.38;100.00
23899;BME280;20544;50.018;20.010;2022-07-23T05:22:20;98821.75;;;22.56;100.00
23899;BME280;20544;50.018;20.010;2022-07-23T05:25:36;98827.83;;;22.78;100.00
23899;BME280;20544;50.018;20.010;2022-07-23T05:28:53;98821.14;;;22.91;100.00
23899;BME280;20544;50.018;20.010;2022-07-23T05:32:10;98829.63;;;23.10;100.00
23899;BME280;20544;50.018;20.010;2022-07-23T05:35:28;98822.98;;;23.34;100.00
23899;BME280;20544;50.018;20.010;2022-07-23T05:38:46;98827.41;;;23.61;100.00
23899;BME280;20544;50.018;20.010;2022-07-23T05:42:03;98836.39;;;23.82;100.00
23899;BME280;20544;50.018;20.010;2022-07-23T05:45:19;98827.78;;;24.05;100.00
23899;BME280;20544;50.018;20.010;2022-07-23T05:48:36;98825.06;;;24.26;100.00
23899;BME280;20544;50.018;20.010;2022-07-23T05:51:56;98821.82;;;24.34;100.00
23899;BME280;20544;50.018;20.010;2022-07-23T05:55:14;98822.10;;;24.33;100.00
23899;BME280;20544;50.018;20.010;2022-07-23T05:58:30;98830.75;;;24.35;98.86
23899;BME280;20544;50.018;20.010;2022-07-23T06:01:46;98827.23;;;24.45;99.75
23899;BME280;20544;50.018;20.010;2022-07-23T06:05:03;98831.03;;;24.54;97.93
23899;BME280;20544;50.018;20.010;2022-07-23T06:08:23;98832.91;;;24.64;96.76
23899;BME280;20544;50.018;20.010;2022-07-23T06:11:39;98833.72;;;24.75;96.85
23899;BME280;20544;50.018;20.010;2022-07-23T06:14:56;98824.77;;;24.79;94.34
23899;BME280;20544;50.018;20.010;2022-07-23T06:18:14;98823.95;;;24.84;93.70
23899;BME280;20544;50.018;20.010;2022-07-23T06:21:31;98819.58;;;24.93;95.28
23899;BME280;20544;50.018;20.010;2022-07-23T06:24:49;98824.70;;;25.05;95.77
23899;BME280;20544;50.018;20.010;2022-07-23T06:28:05;98814.38;;;25.12;91.84
23899;BME280;20544;50.018;20.010;2022-07-23T06:31:22;98816.76;;;25.24;94.73
23899;BME280;20544;50.018;20.010;2022-07-23T06:34:38;98827.30;;;25.36;91.71
23899;BME280;20544;50.018;20.010;2022-07-23T06:37:56;98813.96;;;25.50;93.21
23899;BME280;20544;50.018;20.010;2022-07-23T06:41:12;98814.47;;;25.57;90.56
23899;BME280;20544;50.018;20.010;2022-07-23T06:44:29;98810.86;;;25.67;90.46
23899;BME280;20544;50.018;20.010;2022-07-23T06:47:47;98805.93;;;25.74;88.16
23899;BME280;20544;50.018;20.010;2022-07-23T06:51:04;98802.88;;;25.86;88.84
23899;BME280;20544;50.018;20.010;2022-07-23T06:54:20;98804.71;;;25.96;86.21
23899;BME280;20544;50.018;20.010;2022-07-23T06:57:37;98813.06;;;26.05;85.99
23899;BME280;20544;50.018;20.010;2022-07-23T07:00:53;98811.09;;;26.15;85.83
23899;BME280;20544;50.018;20.010;2022-07-23T07:04:10;98801.80;;;26.22;83.15
23899;BME280;20544;50.018;20.010;2022-07-23T07:07:26;98803.06;;;26.35;83.84
23899;BME280;20544;50.018;20.010;2022-07-23T07:10:43;98806.48;;;26.45;86.76
23899;BME280;20544;50.018;20.010;2022-07-23T07:13:59;98803.95;;;26.54;83.80
23899;BME280;20544;50.018;20.010;2022-07-23T07:17:16;98801.70;;;26.61;82.28
23899;BME280;20544;50.018;20.010;2022-07-23T07:20:36;98809.78;;;26.72;81.40
23899;BME280;20544;50.018;20.010;2022-07-23T07:23:53;98806.67;;;26.84;82.03
23899;BME280;20544;50.018;20.010;2022-07-23T07:27:10;98812.76;;;27.00;82.26
23899;BME280;20544;50.018;20.010;2022-07-23T07:30:36;98804.77;;;27.08;80.47
23899;BME280;20544;50.018;20.010;2022-07-23T07:33:56;98797.56;;;27.18;80.45
23899;BME280;20544;50.018;20.010;2022-07-23T07:37:16;98793.60;;;27.29;80.16
23899;BME280;20544;50.018;20.010;2022-07-23T07:40:33;98792.91;;;27.42;77.13
23899;BME280;20544;50.018;20.010;2022-07-23T07:43:52;98781.50;;;27.79;79.20
23899;BME280;20544;50.018;20.010;2022-07-23T07:47:13;98787.83;;;27.93;75.61
23899;BME280;20544;50.018;20.010;2022-07-23T07:50:33;98791.06;;;28.14;76.58
23899;BME280;20544;50.018;20.010;2022-07-23T07:53:51;98793.63;;;28.38;74.73
23899;BME280;20544;50.018;20.010;2022-07-23T07:57:08;98803.33;;;28.78;73.44
23899;BME280;20544;50.018;20.010;2022-07-23T08:00:25;98800.36;;;29.16;72.65
23899;BME280;20544;50.018;20.010;2022-07-23T08:03:42;98807.53;;;29.53;71.73
23899;BME280;20544;50.018;20.010;2022-07-23T08:06:58;98797.30;;;29.82;70.50
23899;BME280;20544;50.018;20.010;2022-07-23T08:10:15;98806.41;;;30.14;67.33
23899;BME280;20544;50.018;20.010;2022-07-23T08:13:31;98811.17;;;30.54;70.37
23899;BME280;20544;50.018;20.010;2022-07-23T08:16:49;98816.94;;;30.84;66.76
23899;BME280;20544;50.018;20.010;2022-07-23T08:20:10;98823.33;;;31.10;64.36
23899;BME280;20544;50.018;20.010;2022-07-23T08:23:28;98825.34;;;31.54;66.46
23899;BME280;20544;50.018;20.010;2022-07-23T08:26:44;98828.63;;;31.82;66.07
23899;BME280;20544;50.018;20.010;2022-07-23T08:30:01;98828.45;;;31.87;63.04
23899;BME280;20544;50.018;20.010;2022-07-23T08:33:18;98837.95;;;32.07;62.30
23899;BME280;20544;50.018;20.010;2022-07-23T08:36:37;98829.25;;;32.14;60.15
23899;BME280;20544;50.018;20.010;2022-07-23T08:39:53;98831.00;;;32.19;58.77
23899;BME280;20544;50.018;20.010;2022-07-23T08:43:11;98830.22;;;32.27;58.42
23899;BME280;20544;50.018;20.010;2022-07-23T08:46:29;98831.00;;;32.45;58.19
23899;BME280;20544;50.018;20.010;2022-07-23T08:49:48;98823.69;;;32.58;57.33
23899;BME280;20544;50.018;20.010;2022-07-23T08:53:09;98822.98;;;32.70;56.97
23899;BME280;20544;50.018;20.010;2022-07-23T08:56:26;98813.91;;;32.87;54.17
23899;BME280;20544;50.018;20.010;2022-07-23T08:59:43;98805.48;;;33.22;55.40
23899;BME280;20544;50.018;20.010;2022-07-23T09:02:59;98804.46;;;33.35;52.93
23899;BME280;20544;50.018;20.010;2022-07-23T09:06:16;98800.73;;;33.82;53.39
23899;BME280;20544;50.018;20.010;2022-07-23T09:09:32;98794.30;;;34.12;53.96
23899;BME280;20544;50.018;20.010;2022-07-23T09:12:49;98784.91;;;34.13;52.45
23899;BME280;20544;50.018;20.010;2022-07-23T09:16:09;98790.06;;;34.14;53.58
23899;BME280;20544;50.018;20.010;2022-07-23T09:19:30;98783.11;;;34.29;53.16
23899;BME280;20544;50.018;20.010;2022-07-23T09:22:48;98794.53;;;34.53;52.05
23899;BME280;20544;50.018;20.010;2022-07-23T09:26:22;98785.34;;;34.36;49.88
23899;BME280;20544;50.018;20.010;2022-07-23T09:29:39;98793.27;;;34.50;48.85
23899;BME280;20544;50.018;20.010;2022-07-23T09:33:10;98803.72;;;34.23;49.29
23899;BME280;20544;50.018;20.010;2022-07-23T09:36:32;98796.52;;;34.18;49.48
23899;BME280;20544;50.018;20.010;2022-07-23T09:39:49;98794.11;;;34.29;50.50
23899;BME280;20544;50.018;20.010;2022-07-23T09:43:06;98799.17;;;34.27;49.85
23899;BME280;20544;50.018;20.010;2022-07-23T09:46:24;98785.29;;;34.24;51.07
23899;BME280;20544;50.018;20.010;2022-07-23T09:49:41;98776.81;;;34.29;50.61
23899;BME280;20544;50.018;20.010;2022-07-23T09:53:24;98774.88;;;33.96;47.39
23899;BME280;20544;50.018;20.010;2022-07-23T09:56:41;98770.58;;;34.07;47.00
23899;BME280;20544;50.018;20.010;2022-07-23T10:00:01;98767.77;;;34.28;49.11
23899;BME280;20544;50.018;20.010;2022-07-23T10:03:21;98765.08;;;34.19;48.09
23899;BME280;20544;50.018;20.010;2022-07-23T10:06:59;98759.02;;;34.14;49.02
23899;BME280;20544;50.018;20.010;2022-07-23T10:10:34;98752.33;;;34.36;47.76
23899;BME280;20544;50.018;20.010;2022-07-23T10:13:57;98754.27;;;34.48;47.55
23899;BME280;20544;50.018;20.010;2022-07-23T10:17:19;98748.66;;;34.57;46.95
23899;BME280;20544;50.018;20.010;2022-07-23T10:20:36;98741.34;;;34.73;45.24
23899;BME280;20544;50.018;20.010;2022-07-23T10:24:01;98749.92;;;34.72;45.09
23899;BME280;20544;50.018;20.010;2022-07-23T10:27:51;98746.38;;;34.71;44.28
23899;BME280;20544;50.018;20.010;2022-07-23T10:31:35;98757.16;;;34.64;40.22
23899;BME280;20544;50.018;20.010;2022-07-23T10:35:03;98746.72;;;34.45;43.54
23899;BME280;20544;50.018;20.010;2022-07-23T10:38:26;98755.54;;;34.63;43.80
23899;BME280;20544;50.018;20.010;2022-07-23T10:41:44;98753.84;;;34.58;41.93
23899;BME280;20544;50.018;20.010;2022-07-23T10:45:03;98746.52;;;34.16;40.38
23899;BME280;20544;50.018;20.010;2022-07-23T10:48:44;98736.47;;;33.87;40.52
23899;BME280;20544;50.018;20.010;2022-07-23T10:52:26;98740.38;;;33.86;40.49
23899;BME280;20544;50.018;20.010;2022-07-23T10:55:46;98731.84;;;33.79;42.01
23899;BME280;20544;50.018;20.010;2022-07-23T10:59:06;98728.39;;;33.48;42.83
23899;BME280;20544;50.018;20.010;2022-07-23T11:02:27;98726.02;;;33.17;43.71
23899;BME280;20544;50.018;20.010;2022-07-23T11:05:51;98714.23;;;32.95;43.69
23899;BME280;20544;50.018;20.010;2022-07-23T11:09:26;98716.75;;;32.79;45.10
23899;BME280;20544;50.018;20.010;2022-07-23T11:12:45;98710.30;;;33.05;46.63
23899;BME280;20544;50.018;20.010;2022-07-23T11:16:14;98699.76;;;33.28;45.05
23899;BME280;20544;50.018;20.010;2022-07-23T11:23:24;98693.99;;;33.21;44.36
23899;BME280;20544;50.018;20.010;2022-07-23T11:27:03;98697.49;;;33.09;44.10
23899;BME280;20544;50.018;20.010;2022-07-23T11:30:39;98695.38;;;32.85;43.49
23899;BME280;20544;50.018;20.010;2022-07-23T11:34:26;98688.45;;;32.49;40.82
23899;BME280;20544;50.018;20.010;2022-07-23T11:37:47;98684.70;;;32.23;41.26
23899;BME280;20544;50.018;20.010;2022-07-23T11:41:06;98682.33;;;32.04;41.39
23899;BME280;20544;50.018;20.010;2022-07-23T11:44:29;98667.58;;;31.79;41.93
23899;BME280;20544;50.018;20.010;2022-07-23T11:47:46;98669.69;;;31.65;42.82
23899;BME280;20544;50.018;20.010;2022-07-23T11:51:03;98667.25;;;31.63;43.46
23899;BME280;20544;50.018;20.010;2022-07-23T11:54:19;98654.53;;;31.67;45.57
23899;BME280;20544;50.018;20.010;2022-07-23T11:57:38;98659.97;;;31.85;44.65
23899;BME280;20544;50.018;20.010;2022-07-23T12:00:57;98650.25;;;31.96;45.66
23899;BME280;20544;50.018;20.010;2022-07-23T12:04:14;98645.74;;;32.00;45.13
23899;BME280;20544;50.018;20.010;2022-07-23T12:07:31;98648.61;;;32.04;44.74
23899;BME280;20544;50.018;20.010;2022-07-23T12:10:49;98636.51;;;32.05;45.51
23899;BME280;20544;50.018;20.010;2022-07-23T12:14:05;98633.77;;;32.05;46.05
23899;BME280;20544;50.018;20.010;2022-07-23T12:17:28;98625.88;;;32.03;44.31
23899;BME280;20544;50.018;20.010;2022-07-23T12:20:48;98629.30;;;32.00;45.37
23899;BME280;20544;50.018;20.010;2022-07-23T12:24:10;98622.66;;;32.01;44.22
23899;BME280;20544;50.018;20.010;2022-07-23T12:27:27;98610.89;;;32.01;44.59
23899;BME280;20544;50.018;20.010;2022-07-23T12:30:46;98608.00;;;31.97;45.90
23899;BME280;20544;50.018;20.010;2022-07-23T12:34:14;98611.23;;;31.99;47.39
23899;BME280;20544;50.018;20.010;2022-07-23T12:37:33;98607.21;;;31.97;45.89
23899;BME280;20544;50.018;20.010;2022-07-23T12:40:52;98602.70;;;31.92;44.98
23899;BME280;20544;50.018;20.010;2022-07-23T12:44:15;98596.28;;;31.88;45.00
23899;BME280;20544;50.018;20.010;2022-07-23T12:47:31;98588.22;;;31.83;44.08
23899;BME280;20544;50.018;20.010;2022-07-23T12:51:04;98592.91;;;31.82;44.97
23899;BME280;20544;50.018;20.010;2022-07-23T12:54:27;98590.83;;;31.79;45.53
23899;BME280;20544;50.018;20.010;2022-07-23T12:57:49;98586.78;;;31.76;45.82
23899;BME280;20544;50.018;20.010;2022-07-23T13:01:07;98586.33;;;31.74;44.45
23899;BME280;20544;50.018;20.010;2022-07-23T13:04:25;98571.34;;;31.72;44.75
23899;BME280;20544;50.018;20.010;2022-07-23T13:07:42;98564.89;;;31.68;44.87
23899;BME280;20544;50.018;20.010;2022-07-23T13:11:00;98564.25;;;31.62;45.02
23899;BME280;20544;50.018;20.010;2022-07-23T13:14:18;98558.95;;;31.57;45.48
23899;BME280;20544;50.018;20.010;2022-07-23T13:17:35;98553.78;;;31.55;45.60
23899;BME280;20544;50.018;20.010;2022-07-23T13:20:54;98548.97;;;31.52;46.90
23899;BME280;20544;50.018;20.010;2022-07-23T13:24:13;98555.91;;;31.50;47.21
23899;BME280;20544;50.018;20.010;2022-07-23T13:27:27;98547.54;;;31.46;46.68
23899;BME280;20544;50.018;20.010;2022-07-23T13:30:47;98552.53;;;31.44;46.97
23899;BME280;20544;50.018;20.010;2022-07-23T13:34:05;98552.23;;;31.45;47.93
23899;BME280;20544;50.018;20.010;2022-07-23T13:37:21;98540.45;;;31.45;47.37
23899;BME280;20544;50.018;20.010;2022-07-23T13:40:39;98537.38;;;31.46;47.31
23899;BME280;20544;50.018;20.010;2022-07-23T13:43:57;98532.89;;;31.42;46.70
23899;BME280;20544;50.018;20.010;2022-07-23T13:47:15;98526.14;;;31.39;47.39
23899;BME280;20544;50.018;20.010;2022-07-23T13:50:32;98521.64;;;31.35;47.27
23899;BME280;20544;50.018;20.010;2022-07-23T13:53:49;98527.63;;;31.28;47.94
23899;BME280;20544;50.018;20.010;2022-07-23T13:57:08;98518.43;;;31.24;48.24
23899;BME280;20544;50.018;20.010;2022-07-23T14:00:25;98511.22;;;31.19;48.49
23899;BME280;20544;50.018;20.010;2022-07-23T14:03:44;98512.98;;;31.15;49.51
23899;BME280;20544;50.018;20.010;2022-07-23T14:07:01;98514.77;;;31.11;49.51
23899;BME280;20544;50.018;20.010;2022-07-23T14:10:19;98505.27;;;31.08;51.47
23899;BME280;20544;50.018;20.010;2022-07-23T14:13:36;98498.00;;;31.04;50.24
23899;BME280;20544;50.018;20.010;2022-07-23T14:16:53;98491.23;;;31.01;52.10
23899;BME280;20544;50.018;20.010;2022-07-23T14:20:11;98478.85;;;30.95;51.04
23899;BME280;20544;50.018;20.010;2022-07-23T14:23:30;98462.94;;;30.88;51.35
23899;BME280;20544;50.018;20.010;2022-07-23T14:26:46;98457.15;;;30.81;51.89
23899;BME280;20544;50.018;20.010;2022-07-23T14:30:06;98460.84;;;30.76;51.87
23899;BME280;20544;50.018;20.010;2022-07-23T14:33:27;98466.49;;;30.71;52.43
23899;BME280;20544;50.018;20.010;2022-07-23T14:36:44;98445.41;;;30.63;53.76
23899;BME280;20544;50.018;20.010;2022-07-23T14:40:00;98442.52;;;30.50;58.40
23899;BME280;20544;50.018;20.010;2022-07-23T14:43:18;98452.97;;;30.40;54.55
23899;BME280;20544;50.018;20.010;2022-07-23T14:46:34;98457.16;;;30.28;53.87
23899;BME280;20544;50.018;20.010;2022-07-23T14:49:51;98494.44;;;30.24;52.89
23899;BME280;20544;50.018;20.010;2022-07-23T14:53:08;98500.39;;;30.17;53.33
23899;BME280;20544;50.018;20.010;2022-07-23T14:56:26;98516.13;;;30.12;52.78
23899;BME280;20544;50.018;20.010;2022-07-23T14:59:45;98511.93;;;30.06;53.00
23899;BME280;20544;50.018;20.010;2022-07-23T15:03:03;98500.86;;;30.02;58.65
23899;BME280;20544;50.018;20.010;2022-07-23T15:06:20;98492.31;;;29.95;59.72
23899;BME280;20544;50.018;20.010;2022-07-23T15:09:36;98528.08;;;29.84;57.17
23899;BME280;20544;50.018;20.010;2022-07-23T15:12:54;98582.53;;;29.72;52.24
23899;BME280;20544;50.018;20.010;2022-07-23T15:16:11;98548.16;;;29.48;51.92
23899;BME280;20544;50.018;20.010;2022-07-23T15:19:29;98598.66;;;28.92;63.38
23899;BME280;20544;50.018;20.010;2022-07-23T15:22:46;98640.76;;;27.41;87.16
23899;BME280;20544;50.018;20.010;2022-07-23T15:26:03;98591.76;;;26.21;91.13
23899;BME280;20544;50.018;20.010;2022-07-23T15:29:19;98567.05;;;25.40;91.87
23899;BME280;20544;50.018;20.010;2022-07-23T15:32:36;98592.97;;;25.16;93.46
23899;BME280;20544;50.018;20.010;2022-07-23T15:35:52;98635.28;;;24.73;98.21
23899;BME280;20544;50.018;20.010;2022-07-23T15:39:08;98680.11;;;24.29;98.64
23899;BME280;20544;50.018;20.010;2022-07-23T15:42:25;98691.27;;;24.12;100.00
23899;BME280;20544;50.018;20.010;2022-07-23T15:45:42;98692.35;;;23.69;100.00
23899;BME280;20544;50.018;20.010;2022-07-23T15:49:00;98685.06;;;23.96;100.00
23899;BME280;20544;50.018;20.010;2022-07-23T15:52:23;98683.71;;;23.93;100.00
23899;BME280;20544;50.018;20.010;2022-07-23T15:55:40;98671.25;;;23.77;98.85
23899;BME280;20544;50.018;20.010;2022-07-23T15:58:57;98676.92;;;23.65;100.00
23899;BME280;20544;50.018;20.010;2022-07-23T16:02:14;98692.07;;;23.76;100.00
23899;BME280;20544;50.018;20.010;2022-07-23T16:05:32;98686.14;;;23.74;100.00
23899;BME280;20544;50.018;20.010;2022-07-23T16:08:48;98693.15;;;23.75;100.00
23899;BME280;20544;50.018;20.010;2022-07-23T16:12:08;98688.55;;;23.86;100.00
23899;BME280;20544;50.018;20.010;2022-07-23T16:15:24;98697.53;;;23.92;100.00
23899;BME280;20544;50.018;20.010;2022-07-23T16:18:41;98677.45;;;23.77;100.00
23899;BME280;20544;50.018;20.010;2022-07-23T16:21:59;98647.41;;;23.73;100.00
23899;BME280;20544;50.018;20.010;2022-07-23T16:25:15;98650.94;;;23.53;100.00
23899;BME280;20544;50.018;20.010;2022-07-23T16:28:33;98588.42;;;23.55;100.00
23899;BME280;20544;50.018;20.010;2022-07-23T16:31:50;98564.89;;;23.55;100.00
23899;BME280;20544;50.018;20.010;2022-07-23T16:35:08;98549.45;;;23.56;100.00
23899;BME280;20544;50.018;20.010;2022-07-23T16:38:28;98567.03;;;23.58;100.00
23899;BME280;20544;50.018;20.010;2022-07-23T16:41:45;98585.44;;;23.51;100.00
23899;BME280;20544;50.018;20.010;2022-07-23T16:45:02;98599.80;;;23.47;100.00
23899;BME280;20544;50.018;20.010;2022-07-23T16:48:20;98616.58;;;23.59;100.00
23899;BME280;20544;50.018;20.010;2022-07-23T16:51:44;98660.42;;;23.71;100.00
23899;BME280;20544;50.018;20.010;2022-07-23T16:55:00;98675.04;;;23.65;100.00
23899;BME280;20544;50.018;20.010;2022-07-23T16:58:17;98688.02;;;23.53;100.00
23899;BME280;20544;50.018;20.010;2022-07-23T17:01:36;98699.37;;;23.45;100.00
23899;BME280;20544;50.018;20.010;2022-07-23T17:04:53;98702.88;;;23.40;100.00
23899;BME280;20544;50.018;20.010;2022-07-23T17:08:09;98705.58;;;23.35;100.00
23899;BME280;20544;50.018;20.010;2022-07-23T17:11:25;98727.76;;;23.26;100.00
23899;BME280;20544;50.018;20.010;2022-07-23T17:14:42;98733.75;;;23.44;100.00